createdAt,value
2022-10-17T00:08:42.274Z,3.50
2022-10-17T00:18:43.870Z,3.52
2022-10-17T00:28:49.022Z,3.28
2022-10-17T00:38:52.917Z,3.48
2022-10-17T00:48:55.855Z,3.34
2022-10-17T00:58:58.188Z,3.11
2022-10-17T01:08:59.872Z,2.85
2022-10-17T01:19:31.801Z,2.02
2022-10-17T01:29:51.233Z,1.64
2022-10-17T01:39:54.859Z,1.71
2022-10-17T01:49:59.632Z,1.80
2022-10-17T02:00:02.904Z,1.93
2022-10-17T02:10:09.316Z,1.98
2022-10-17T02:20:26.155Z,1.95
2022-10-17T02:30:36.931Z,1.99
2022-10-17T02:40:39.927Z,2.25
2022-10-17T02:50:44.410Z,2.42
2022-10-17T03:00:46.024Z,2.71
2022-10-17T03:10:48.108Z,2.54
2022-10-17T03:20:49.696Z,2.71
2022-10-17T03:30:51.271Z,2.94
2022-10-17T03:40:56.382Z,3.40
2022-10-17T03:51:01.913Z,3.27
2022-10-17T04:01:04.324Z,3.21
2022-10-17T04:11:07.362Z,3.36
2022-10-17T04:21:11.743Z,3.06
2022-10-17T04:31:14.478Z,2.68
2022-10-17T04:41:17.341Z,2.03
2022-10-17T04:51:21.801Z,1.92
2022-10-17T05:01:26.681Z,2.13
2022-10-17T05:11:28.942Z,2.51
2022-10-17T05:21:30.759Z,3.10
2022-10-17T05:31:32.395Z,3.83
2022-10-17T05:41:34.108Z,4.47
2022-10-17T05:51:35.714Z,5.26
2022-10-17T06:01:37.324Z,5.53
2022-10-17T06:11:39.012Z,6.22
2022-10-17T06:21:40.552Z,6.92
2022-10-17T06:31:42.307Z,7.70
2022-10-17T06:41:44.762Z,7.92
2022-10-17T06:51:47.530Z,8.81
2022-10-17T07:01:49.308Z,8.97
2022-10-17T07:11:50.932Z,10.05
2022-10-17T07:21:53.142Z,10.71
2022-10-17T07:31:54.704Z,10.82
2022-10-17T07:41:56.267Z,10.74
2022-10-17T07:51:57.825Z,10.99
2022-10-17T08:01:59.710Z,11.57
2022-10-17T08:12:01.275Z,12.45
2022-10-17T08:22:02.928Z,12.97
2022-10-17T08:32:07.656Z,13.57
2022-10-17T08:42:29.525Z,14.12
2022-10-17T08:52:40.346Z,14.62
2022-10-17T09:03:08.177Z,14.66
2022-10-17T09:13:19.014Z,15.47
2022-10-17T09:23:30.416Z,15.12
2022-10-17T09:33:55.647Z,15.32
2022-10-17T09:43:58.376Z,15.16
2022-10-17T09:54:02.114Z,17.07
2022-10-17T10:04:14.530Z,16.53
2022-10-17T10:14:28.250Z,16.19
2022-10-17T10:24:31.184Z,17.08
2022-10-17T10:34:35.910Z,16.84
2022-10-17T10:44:39.456Z,16.91
2022-10-17T10:54:45.083Z,16.79
2022-10-17T11:15:57.925Z,17.30
2022-10-17T11:26:26.290Z,18.46
2022-10-17T11:36:34.667Z,18.04
2022-10-17T11:46:38.429Z,18.15
2022-10-17T11:56:47.478Z,17.77
2022-10-17T12:06:57.352Z,19.05
2022-10-17T12:17:06.629Z,18.62
2022-10-17T12:27:47.884Z,18.94
2022-10-17T12:37:51.600Z,18.67
2022-10-17T12:47:56.300Z,18.51
2022-10-17T12:58:04.584Z,18.68
2022-10-17T13:08:14.318Z,18.36
2022-10-17T13:18:25.083Z,19.41
2022-10-17T13:28:30.373Z,19.73
2022-10-17T13:49:55.418Z,18.60
2022-10-17T14:10:33.863Z,18.51
2022-10-17T14:31:10.775Z,16.48
2022-10-17T14:41:41.921Z,15.59
2022-10-17T14:52:07.763Z,14.89
2022-10-17T15:02:10.032Z,14.26
2022-10-17T15:12:16.375Z,13.60
2022-10-17T15:22:18.519Z,13.26
2022-10-17T15:32:20.016Z,13.03
2022-10-17T15:42:29.321Z,12.52
2022-10-17T15:52:30.889Z,12.18
2022-10-17T16:02:33.358Z,11.82
2022-10-17T16:12:41.791Z,11.16
2022-10-17T16:22:47.370Z,10.96
2022-10-17T16:32:49.293Z,10.75
2022-10-17T16:42:50.917Z,10.23
2022-10-17T16:52:52.955Z,10.09
2022-10-17T17:02:54.611Z,9.84
2022-10-17T17:12:57.272Z,9.74
2022-10-17T17:22:59.513Z,9.79
2022-10-17T17:33:01.199Z,9.90
2022-10-17T17:43:02.842Z,9.89
2022-10-17T17:53:05.474Z,9.63
2022-10-17T18:03:07.340Z,9.65
2022-10-17T18:13:08.852Z,9.56
2022-10-17T18:23:11.027Z,9.41
2022-10-17T18:33:12.635Z,9.36
2022-10-17T18:43:14.176Z,9.32
2022-10-17T18:53:15.663Z,9.29
2022-10-17T19:03:17.741Z,9.07
2022-10-17T19:13:21.546Z,9.04
2022-10-17T19:23:23.368Z,9.06
2022-10-17T19:33:25.130Z,9.12
2022-10-17T19:43:26.873Z,8.97
2022-10-17T19:53:29.643Z,8.84
2022-10-17T20:03:31.334Z,8.51
2022-10-17T20:13:34.369Z,8.35
2022-10-17T20:23:36.168Z,8.45
2022-10-17T20:33:37.803Z,8.52
2022-10-17T20:43:39.366Z,8.27
2022-10-17T20:53:40.953Z,8.11
2022-10-17T21:03:46.369Z,8.23
2022-10-17T21:13:53.347Z,8.17
2022-10-17T21:23:56.634Z,8.06
2022-10-17T21:34:00.436Z,7.98
2022-10-17T21:44:04.336Z,7.87
2022-10-17T21:54:06.140Z,7.70
2022-10-17T22:04:10.253Z,7.73
2022-10-17T22:14:14.501Z,7.44
2022-10-17T22:24:16.932Z,7.34
2022-10-17T22:34:18.473Z,7.48
2022-10-17T22:44:20.042Z,7.26
2022-10-17T22:54:21.571Z,6.82
2022-10-17T23:04:23.063Z,6.83
2022-10-17T23:14:24.566Z,6.72
2022-10-17T23:24:26.216Z,6.83
2022-10-17T23:34:28.744Z,7.03
2022-10-17T23:44:30.209Z,7.05
2022-10-17T23:54:31.894Z,7.10
